sensor_id;sensor_type;location;lat;lon;timestamp;P1;durP1;ratioP1;P2;durP2;ratioP2
35042;SDS011;21230;51.170;17.024;2022-12-18T00:01:16;59.42;;;24.40;;
35042;SDS011;21230;51.170;17.024;2022-12-18T00:03:42;54.80;;;22.00;;
35042;SDS011;21230;51.170;17.024;2022-12-18T00:06:09;67.95;;;24.48;;
35042;SDS011;21230;51.170;17.024;2022-12-18T00:08:39;50.25;;;18.50;;
35042;SDS011;21230;51.170;17.024;2022-12-18T00:11:09;69.53;;;23.92;;
35042;SDS011;21230;51.170;17.024;2022-12-18T00:13:42;66.93;;;24.88;;
35042;SDS011;21230;51.170;17.024;2022-12-18T00:16:14;65.93;;;25.90;;
35042;SDS011;21230;51.170;17.024;2022-12-18T00:18:51;68.13;;;25.23;;
35042;SDS011;21230;51.170;17.024;2022-12-18T00:21:18;64.72;;;25.88;;
35042;SDS011;21230;51.170;17.024;2022-12-18T00:23:45;52.15;;;25.27;;
35042;SDS011;21230;51.170;17.024;2022-12-18T00:26:14;55.80;;;22.88;;
35042;SDS011;21230;51.170;17.024;2022-12-18T00:28:54;63.42;;;24.33;;
35042;SDS011;21230;51.170;17.024;2022-12-18T00:31:23;79.72;;;28.40;;
35042;SDS011;21230;51.170;17.024;2022-12-18T00:33:51;70.55;;;23.98;;
35042;SDS011;21230;51.170;17.024;2022-12-18T00:36:19;61.97;;;24.35;;
35042;SDS011;21230;51.170;17.024;2022-12-18T00:38:47;70.07;;;24.55;;
35042;SDS011;21230;51.170;17.024;2022-12-18T00:41:13;72.82;;;27.60;;
35042;SDS011;21230;51.170;17.024;2022-12-18T00:44:02;77.43;;;25.02;;
35042;SDS011;21230;51.170;17.024;2022-12-18T00:46:29;63.35;;;25.08;;
35042;SDS011;21230;51.170;17.024;2022-12-18T00:48:56;77.85;;;24.67;;
35042;SDS011;21230;51.170;17.024;2022-12-18T00:51:23;70.75;;;25.15;;
35042;SDS011;21230;51.170;17.024;2022-12-18T00:53:53;59.33;;;27.40;;
35042;SDS011;21230;51.170;17.024;2022-12-18T00:56:19;62.55;;;24.00;;
35042;SDS011;21230;51.170;17.024;2022-12-18T00:58:52;62.65;;;22.80;;
35042;SDS011;21230;51.170;17.024;2022-12-18T01:01:21;57.63;;;22.25;;
35042;SDS011;21230;51.170;17.024;2022-12-18T01:03:50;59.92;;;22.88;;
35042;SDS011;21230;51.170;17.024;2022-12-18T01:08:44;56.78;;;23.17;;
35042;SDS011;21230;51.170;17.024;2022-12-18T01:11:16;75.25;;;24.58;;
35042;SDS011;21230;51.170;17.024;2022-12-18T01:13:51;66.75;;;22.67;;
35042;SDS011;21230;51.170;17.024;2022-12-18T01:16:26;58.40;;;25.42;;
35042;SDS011;21230;51.170;17.024;2022-12-18T01:19:00;68.70;;;25.38;;
35042;SDS011;21230;51.170;17.024;2022-12-18T01:21:31;70.85;;;26.88;;
35042;SDS011;21230;51.170;17.024;2022-12-18T01:23:59;63.10;;;26.80;;
35042;SDS011;21230;51.170;17.024;2022-12-18T01:26:30;67.45;;;22.38;;
35042;SDS011;21230;51.170;17.024;2022-12-18T01:28:58;71.90;;;25.60;;
35042;SDS011;21230;51.170;17.024;2022-12-18T01:31:30;65.32;;;24.38;;
35042;SDS011;21230;51.170;17.024;2022-12-18T01:34:06;58.90;;;25.02;;
35042;SDS011;21230;51.170;17.024;2022-12-18T01:36:53;60.17;;;22.02;;
35042;SDS011;21230;51.170;17.024;2022-12-18T01:39:25;67.15;;;21.15;;
35042;SDS011;21230;51.170;17.024;2022-12-18T01:41:58;61.20;;;22.75;;
35042;SDS011;21230;51.170;17.024;2022-12-18T01:48:07;45.05;;;18.45;;
35042;SDS011;21230;51.170;17.024;2022-12-18T01:50:21;71.13;;;25.23;;
35042;SDS011;21230;51.170;17.024;2022-12-18T01:53:13;64.30;;;23.90;;
35042;SDS011;21230;51.170;17.024;2022-12-18T01:55:47;55.20;;;23.42;;
35042;SDS011;21230;51.170;17.024;2022-12-18T01:59:06;48.53;;;21.50;;
35042;SDS011;21230;51.170;17.024;2022-12-18T02:01:30;60.38;;;23.38;;
35042;SDS011;21230;51.170;17.024;2022-12-18T02:07:11;57.40;;;21.90;;
35042;SDS011;21230;51.170;17.024;2022-12-18T02:28:13;58.33;;;21.15;;
35042;SDS011;21230;51.170;17.024;2022-12-18T02:30:47;63.30;;;22.55;;
35042;SDS011;21230;51.170;17.024;2022-12-18T02:33:19;47.95;;;21.05;;
35042;SDS011;21230;51.170;17.024;2022-12-18T02:35:56;47.65;;;19.13;;
35042;SDS011;21230;51.170;17.024;2022-12-18T02:38:26;56.15;;;21.05;;
35042;SDS011;21230;51.170;17.024;2022-12-18T02:41:01;55.35;;;20.08;;
35042;SDS011;21230;51.170;17.024;2022-12-18T02:43:38;49.47;;;18.67;;
35042;SDS011;21230;51.170;17.024;2022-12-18T02:48:53;44.20;;;18.15;;
35042;SDS011;21230;51.170;17.024;2022-12-18T02:51:38;49.55;;;19.10;;
35042;SDS011;21230;51.170;17.024;2022-12-18T02:54:26;61.17;;;22.40;;
35042;SDS011;21230;51.170;17.024;2022-12-18T02:57:13;36.65;;;16.05;;
35042;SDS011;21230;51.170;17.024;2022-12-18T03:00:00;43.90;;;19.67;;
35042;SDS011;21230;51.170;17.024;2022-12-18T03:02:39;43.38;;;19.00;;
35042;SDS011;21230;51.170;17.024;2022-12-18T03:05:12;49.60;;;19.75;;
35042;SDS011;21230;51.170;17.024;2022-12-18T03:07:58;36.95;;;18.50;;
35042;SDS011;21230;51.170;17.024;2022-12-18T03:10:35;55.95;;;19.42;;
35042;SDS011;21230;51.170;17.024;2022-12-18T03:13:19;63.53;;;21.02;;
35042;SDS011;21230;51.170;17.024;2022-12-18T03:15:56;49.80;;;19.88;;
35042;SDS011;21230;51.170;17.024;2022-12-18T03:18:34;53.97;;;20.48;;
35042;SDS011;21230;51.170;17.024;2022-12-18T03:21:13;50.33;;;19.90;;
35042;SDS011;21230;51.170;17.024;2022-12-18T03:23:47;59.08;;;21.45;;
35042;SDS011;21230;51.170;17.024;2022-12-18T03:26:22;48.25;;;20.67;;
35042;SDS011;21230;51.170;17.024;2022-12-18T03:28:59;55.78;;;21.50;;
35042;SDS011;21230;51.170;17.024;2022-12-18T03:31:35;52.28;;;21.98;;
35042;SDS011;21230;51.170;17.024;2022-12-18T03:34:09;42.75;;;16.98;;
35042;SDS011;21230;51.170;17.024;2022-12-18T03:36:40;61.70;;;20.45;;
35042;SDS011;21230;51.170;17.024;2022-12-18T03:39:06;46.67;;;19.85;;
35042;SDS011;21230;51.170;17.024;2022-12-18T03:41:43;57.08;;;22.00;;
35042;SDS011;21230;51.170;17.024;2022-12-18T03:44:31;54.08;;;25.38;;
35042;SDS011;21230;51.170;17.024;2022-12-18T03:52:18;51.00;;;18.77;;
35042;SDS011;21230;51.170;17.024;2022-12-18T03:54:55;49.50;;;20.93;;
35042;SDS011;21230;51.170;17.024;2022-12-18T03:57:24;52.75;;;25.25;;
35042;SDS011;21230;51.170;17.024;2022-12-18T03:59:57;52.50;;;23.65;;
35042;SDS011;21230;51.170;17.024;2022-12-18T04:02:32;52.28;;;21.55;;
35042;SDS011;21230;51.170;17.024;2022-12-18T04:05:00;50.05;;;22.17;;
35042;SDS011;21230;51.170;17.024;2022-12-18T04:07:28;53.58;;;22.08;;
35042;SDS011;21230;51.170;17.024;2022-12-18T04:09:57;66.78;;;25.10;;
35042;SDS011;21230;51.170;17.024;2022-12-18T04:12:26;51.42;;;21.08;;
35042;SDS011;21230;51.170;17.024;2022-12-18T04:14:54;53.38;;;20.67;;
35042;SDS011;21230;51.170;17.024;2022-12-18T04:17:20;50.75;;;19.50;;
35042;SDS011;21230;51.170;17.024;2022-12-18T04:19:47;47.10;;;21.13;;
35042;SDS011;21230;51.170;17.024;2022-12-18T04:22:15;47.80;;;21.45;;
35042;SDS011;21230;51.170;17.024;2022-12-18T04:24:41;53.70;;;21.90;;
35042;SDS011;21230;51.170;17.024;2022-12-18T04:27:10;44.25;;;22.15;;
35042;SDS011;21230;51.170;17.024;2022-12-18T04:29:37;52.85;;;24.55;;
35042;SDS011;21230;51.170;17.024;2022-12-18T04:32:03;48.72;;;21.80;;
35042;SDS011;21230;51.170;17.024;2022-12-18T04:34:30;53.35;;;21.85;;
35042;SDS011;21230;51.170;17.024;2022-12-18T04:36:56;62.03;;;23.90;;
35042;SDS011;21230;51.170;17.024;2022-12-18T04:39:23;51.47;;;20.55;;
35042;SDS011;21230;51.170;17.024;2022-12-18T04:41:49;58.20;;;23.45;;
35042;SDS011;21230;51.170;17.024;2022-12-18T04:44:15;65.32;;;24.42;;
35042;SDS011;21230;51.170;17.024;2022-12-18T04:46:42;52.63;;;22.13;;
35042;SDS011;21230;51.170;17.024;2022-12-18T04:49:08;42.50;;;20.85;;
35042;SDS011;21230;51.170;17.024;2022-12-18T04:51:36;51.15;;;21.05;;
35042;SDS011;21230;51.170;17.024;2022-12-18T04:54:02;39.63;;;17.40;;
35042;SDS011;21230;51.170;17.024;2022-12-18T04:56:33;40.78;;;18.33;;
35042;SDS011;21230;51.170;17.024;2022-12-18T04:58:59;45.15;;;20.13;;
35042;SDS011;21230;51.170;17.024;2022-12-18T05:01:25;53.97;;;20.27;;
35042;SDS011;21230;51.170;17.024;2022-12-18T05:03:53;52.35;;;19.40;;
35042;SDS011;21230;51.170;17.024;2022-12-18T05:06:19;63.88;;;24.10;;
35042;SDS011;21230;51.170;17.024;2022-12-18T05:08:46;41.45;;;20.45;;
35042;SDS011;21230;51.170;17.024;2022-12-18T05:11:13;50.08;;;19.83;;
35042;SDS011;21230;51.170;17.024;2022-12-18T05:13:45;40.20;;;17.40;;
35042;SDS011;21230;51.170;17.024;2022-12-18T05:16:12;52.80;;;22.30;;
35042;SDS011;21230;51.170;17.024;2022-12-18T05:18:39;50.13;;;21.25;;
35042;SDS011;21230;51.170;17.024;2022-12-18T05:21:05;44.67;;;19.77;;
35042;SDS011;21230;51.170;17.024;2022-12-18T05:23:31;59.28;;;21.92;;
35042;SDS011;21230;51.170;17.024;2022-12-18T05:28:34;53.90;;;21.08;;
35042;SDS011;21230;51.170;17.024;2022-12-18T05:31:01;47.95;;;18.60;;
35042;SDS011;21230;51.170;17.024;2022-12-18T05:33:31;59.10;;;20.23;;
35042;SDS011;21230;51.170;17.024;2022-12-18T05:36:02;62.55;;;20.73;;
35042;SDS011;21230;51.170;17.024;2022-12-18T05:38:31;58.30;;;19.95;;
35042;SDS011;21230;51.170;17.024;2022-12-18T05:41:00;40.05;;;20.05;;
35042;SDS011;21230;51.170;17.024;2022-12-18T05:43:27;50.80;;;19.73;;
35042;SDS011;21230;51.170;17.024;2022-12-18T05:45:54;57.13;;;21.50;;
35042;SDS011;21230;51.170;17.024;2022-12-18T05:48:22;58.50;;;23.60;;
35042;SDS011;21230;51.170;17.024;2022-12-18T05:50:49;62.95;;;22.55;;
35042;SDS011;21230;51.170;17.024;2022-12-18T05:53:16;52.33;;;22.77;;
35042;SDS011;21230;51.170;17.024;2022-12-18T05:55:45;53.42;;;22.42;;
35042;SDS011;21230;51.170;17.024;2022-12-18T05:58:12;66.88;;;23.70;;
35042;SDS011;21230;51.170;17.024;2022-12-18T06:00:40;59.58;;;22.10;;
35042;SDS011;21230;51.170;17.024;2022-12-18T06:03:08;51.90;;;20.85;;
35042;SDS011;21230;51.170;17.024;2022-12-18T06:05:38;48.03;;;23.10;;
35042;SDS011;21230;51.170;17.024;2022-12-18T06:08:07;50.20;;;22.55;;
35042;SDS011;21230;51.170;17.024;2022-12-18T06:10:34;58.22;;;22.13;;
35042;SDS011;21230;51.170;17.024;2022-12-18T06:13:00;43.30;;;21.30;;
35042;SDS011;21230;51.170;17.024;2022-12-18T06:15:26;45.63;;;19.80;;
35042;SDS011;21230;51.170;17.024;2022-12-18T06:17:53;44.20;;;20.52;;
35042;SDS011;21230;51.170;17.024;2022-12-18T06:20:19;51.60;;;22.23;;
35042;SDS011;21230;51.170;17.024;2022-12-18T06:22:45;51.30;;;20.73;;
35042;SDS011;21230;51.170;17.024;2022-12-18T06:25:12;51.85;;;23.13;;
35042;SDS011;21230;51.170;17.024;2022-12-18T06:27:37;47.28;;;19.33;;
35042;SDS011;21230;51.170;17.024;2022-12-18T06:30:04;39.90;;;18.48;;
35042;SDS011;21230;51.170;17.024;2022-12-18T06:32:33;46.33;;;19.45;;
35042;SDS011;21230;51.170;17.024;2022-12-18T06:34:59;43.28;;;21.88;;
35042;SDS011;21230;51.170;17.024;2022-12-18T06:37:25;45.85;;;21.40;;
35042;SDS011;21230;51.170;17.024;2022-12-18T06:39:52;43.80;;;18.73;;
35042;SDS011;21230;51.170;17.024;2022-12-18T06:42:22;45.00;;;18.83;;
35042;SDS011;21230;51.170;17.024;2022-12-18T06:44:49;42.00;;;21.15;;
35042;SDS011;21230;51.170;17.024;2022-12-18T06:47:19;46.83;;;17.63;;
35042;SDS011;21230;51.170;17.024;2022-12-18T06:49:45;47.75;;;19.10;;
35042;SDS011;21230;51.170;17.024;2022-12-18T06:52:11;44.65;;;19.60;;
35042;SDS011;21230;51.170;17.024;2022-12-18T06:54:36;61.30;;;26.38;;
35042;SDS011;21230;51.170;17.024;2022-12-18T06:57:02;54.47;;;23.25;;
35042;SDS011;21230;51.170;17.024;2022-12-18T06:59:28;46.38;;;20.65;;
35042;SDS011;21230;51.170;17.024;2022-12-18T07:01:54;60.15;;;22.55;;
35042;SDS011;21230;51.170;17.024;2022-12-18T07:04:20;49.45;;;19.30;;
35042;SDS011;21230;51.170;17.024;2022-12-18T07:06:45;69.30;;;27.35;;
35042;SDS011;21230;51.170;17.024;2022-12-18T07:09:11;52.28;;;22.95;;
35042;SDS011;21230;51.170;17.024;2022-12-18T07:11:37;59.03;;;26.67;;
35042;SDS011;21230;51.170;17.024;2022-12-18T07:14:03;49.90;;;25.95;;
35042;SDS011;21230;51.170;17.024;2022-12-18T07:16:29;50.25;;;23.52;;
35042;SDS011;21230;51.170;17.024;2022-12-18T07:18:55;49.20;;;23.65;;
35042;SDS011;21230;51.170;17.024;2022-12-18T07:21:22;53.67;;;23.77;;
35042;SDS011;21230;51.170;17.024;2022-12-18T07:23:49;62.58;;;28.27;;
35042;SDS011;21230;51.170;17.024;2022-12-18T07:26:16;62.63;;;26.40;;
35042;SDS011;21230;51.170;17.024;2022-12-18T07:28:44;67.03;;;30.08;;
35042;SDS011;21230;51.170;17.024;2022-12-18T07:31:11;64.65;;;28.02;;
35042;SDS011;21230;51.170;17.024;2022-12-18T07:33:39;58.83;;;25.25;;
35042;SDS011;21230;51.170;17.024;2022-12-18T07:36:06;60.00;;;30.83;;
35042;SDS011;21230;51.170;17.024;2022-12-18T07:38:34;60.20;;;29.30;;
35042;SDS011;21230;51.170;17.024;2022-12-18T07:41:05;66.18;;;26.25;;
35042;SDS011;21230;51.170;17.024;2022-12-18T07:43:35;67.32;;;27.08;;
35042;SDS011;21230;51.170;17.024;2022-12-18T07:46:01;70.72;;;27.38;;
35042;SDS011;21230;51.170;17.024;2022-12-18T07:48:28;63.53;;;29.02;;
35042;SDS011;21230;51.170;17.024;2022-12-18T07:51:01;62.50;;;28.80;;
35042;SDS011;21230;51.170;17.024;2022-12-18T07:53:30;67.47;;;27.25;;
35042;SDS011;21230;51.170;17.024;2022-12-18T07:56:11;67.20;;;28.92;;
35042;SDS011;21230;51.170;17.024;2022-12-18T07:58:40;72.05;;;29.15;;
35042;SDS011;21230;51.170;17.024;2022-12-18T08:01:08;66.18;;;29.48;;
35042;SDS011;21230;51.170;17.024;2022-12-18T08:03:36;71.03;;;30.48;;
35042;SDS011;21230;51.170;17.024;2022-12-18T08:06:03;76.60;;;32.05;;
35042;SDS011;21230;51.170;17.024;2022-12-18T08:08:32;71.32;;;31.30;;
35042;SDS011;21230;51.170;17.024;2022-12-18T08:10:59;81.80;;;34.22;;
35042;SDS011;21230;51.170;17.024;2022-12-18T08:13:25;67.57;;;27.83;;
35042;SDS011;21230;51.170;17.024;2022-12-18T08:15:56;69.35;;;33.53;;
35042;SDS011;21230;51.170;17.024;2022-12-18T08:18:26;85.15;;;33.97;;
35042;SDS011;21230;51.170;17.024;2022-12-18T08:20:53;74.20;;;32.40;;
35042;SDS011;21230;51.170;17.024;2022-12-18T08:23:23;64.35;;;29.38;;
35042;SDS011;21230;51.170;17.024;2022-12-18T08:25:49;65.63;;;32.40;;
35042;SDS011;21230;51.170;17.024;2022-12-18T08:28:16;72.63;;;35.20;;
35042;SDS011;21230;51.170;17.024;2022-12-18T08:30:42;82.63;;;31.55;;
35042;SDS011;21230;51.170;17.024;2022-12-18T08:33:08;80.63;;;38.63;;
35042;SDS011;21230;51.170;17.024;2022-12-18T08:35:35;71.03;;;31.85;;
35042;SDS011;21230;51.170;17.024;2022-12-18T08:38:01;62.25;;;25.65;;
35042;SDS011;21230;51.170;17.024;2022-12-18T08:40:28;65.03;;;27.65;;
35042;SDS011;21230;51.170;17.024;2022-12-18T08:42:54;58.50;;;24.70;;
35042;SDS011;21230;51.170;17.024;2022-12-18T08:45:39;59.88;;;25.35;;
35042;SDS011;21230;51.170;17.024;2022-12-18T08:48:05;54.33;;;22.92;;
35042;SDS011;21230;51.170;17.024;2022-12-18T08:50:31;48.50;;;22.92;;
35042;SDS011;21230;51.170;17.024;2022-12-18T08:52:57;41.88;;;21.38;;
35042;SDS011;21230;51.170;17.024;2022-12-18T08:55:29;48.97;;;22.55;;
35042;SDS011;21230;51.170;17.024;2022-12-18T09:00:59;48.95;;;23.05;;
35042;SDS011;21230;51.170;17.024;2022-12-18T09:03:32;56.10;;;22.45;;
35042;SDS011;21230;51.170;17.024;2022-12-18T09:06:00;34.17;;;18.50;;
35042;SDS011;21230;51.170;17.024;2022-12-18T09:08:31;56.50;;;23.20;;
35042;SDS011;21230;51.170;17.024;2022-12-18T09:10:59;44.33;;;20.63;;
35042;SDS011;21230;51.170;17.024;2022-12-18T09:13:25;49.92;;;23.25;;
35042;SDS011;21230;51.170;17.024;2022-12-18T09:15:51;53.10;;;22.67;;
35042;SDS011;21230;51.170;17.024;2022-12-18T09:18:19;54.70;;;23.08;;
35042;SDS011;21230;51.170;17.024;2022-12-18T09:20:46;59.58;;;24.88;;
35042;SDS011;21230;51.170;17.024;2022-12-18T09:23:12;47.28;;;23.08;;
35042;SDS011;21230;51.170;17.024;2022-12-18T09:25:39;56.50;;;23.90;;
35042;SDS011;21230;51.170;17.024;2022-12-18T09:28:12;60.05;;;26.42;;
35042;SDS011;21230;51.170;17.024;2022-12-18T09:30:47;45.17;;;18.52;;
35042;SDS011;21230;51.170;17.024;2022-12-18T09:33:15;34.42;;;16.67;;
35042;SDS011;21230;51.170;17.024;2022-12-18T09:35:42;40.65;;;18.92;;
35042;SDS011;21230;51.170;17.024;2022-12-18T09:38:13;63.28;;;23.95;;
35042;SDS011;21230;51.170;17.024;2022-12-18T09:40:51;45.65;;;22.42;;
35042;SDS011;21230;51.170;17.024;2022-12-18T09:43:20;40.10;;;18.52;;
35042;SDS011;21230;51.170;17.024;2022-12-18T09:45:54;48.40;;;23.27;;
35042;SDS011;21230;51.170;17.024;2022-12-18T09:48:31;61.65;;;22.55;;
35042;SDS011;21230;51.170;17.024;2022-12-18T09:51:02;46.38;;;20.17;;
35042;SDS011;21230;51.170;17.024;2022-12-18T09:53:36;45.25;;;19.38;;
35042;SDS011;21230;51.170;17.024;2022-12-18T09:56:05;52.90;;;22.58;;
35042;SDS011;21230;51.170;17.024;2022-12-18T10:01:10;38.03;;;17.85;;
35042;SDS011;21230;51.170;17.024;2022-12-18T10:03:49;62.10;;;23.88;;
35042;SDS011;21230;51.170;17.024;2022-12-18T10:20:17;53.35;;;23.40;;
35042;SDS011;21230;51.170;17.024;2022-12-18T10:28:38;58.13;;;20.80;;
35042;SDS011;21230;51.170;17.024;2022-12-18T10:31:26;56.03;;;22.25;;
35042;SDS011;21230;51.170;17.024;2022-12-18T10:33:54;49.97;;;21.55;;
35042;SDS011;21230;51.170;17.024;2022-12-18T10:36:20;51.33;;;23.13;;
35042;SDS011;21230;51.170;17.024;2022-12-18T10:43:46;89.22;;;27.17;;
35042;SDS011;21230;51.170;17.024;2022-12-18T10:46:19;64.55;;;26.60;;
35042;SDS011;21230;51.170;17.024;2022-12-18T10:51:29;63.40;;;23.00;;
35042;SDS011;21230;51.170;17.024;2022-12-18T10:56:53;53.42;;;20.65;;
35042;SDS011;21230;51.170;17.024;2022-12-18T10:59:55;59.78;;;23.63;;
35042;SDS011;21230;51.170;17.024;2022-12-18T11:02:33;54.00;;;22.98;;
35042;SDS011;21230;51.170;17.024;2022-12-18T11:05:01;51.63;;;20.90;;
35042;SDS011;21230;51.170;17.024;2022-12-18T11:07:47;56.40;;;25.33;;
35042;SDS011;21230;51.170;17.024;2022-12-18T11:10:18;59.95;;;25.10;;
35042;SDS011;21230;51.170;17.024;2022-12-18T11:13:08;70.93;;;26.67;;
35042;SDS011;21230;51.170;17.024;2022-12-18T11:15:43;73.35;;;28.75;;
35042;SDS011;21230;51.170;17.024;2022-12-18T11:21:10;68.45;;;27.60;;
35042;SDS011;21230;51.170;17.024;2022-12-18T11:23:44;75.97;;;28.70;;
35042;SDS011;21230;51.170;17.024;2022-12-18T11:26:18;124.43;;;33.80;;
35042;SDS011;21230;51.170;17.024;2022-12-18T11:28:52;65.43;;;26.92;;
35042;SDS011;21230;51.170;17.024;2022-12-18T11:31:41;62.00;;;25.98;;
35042;SDS011;21230;51.170;17.024;2022-12-18T11:36:53;68.15;;;27.95;;
35042;SDS011;21230;51.170;17.024;2022-12-18T11:42:14;53.63;;;26.20;;
35042;SDS011;21230;51.170;17.024;2022-12-18T11:48:16;58.10;;;24.60;;
35042;SDS011;21230;51.170;17.024;2022-12-18T11:50:53;62.67;;;27.92;;
35042;SDS011;21230;51.170;17.024;2022-12-18T11:53:24;70.45;;;26.33;;
35042;SDS011;21230;51.170;17.024;2022-12-18T12:01:51;64.10;;;26.88;;
35042;SDS011;21230;51.170;17.024;2022-12-18T12:10:13;77.07;;;27.45;;
35042;SDS011;21230;51.170;17.024;2022-12-18T12:12:58;68.10;;;26.90;;
35042;SDS011;21230;51.170;17.024;2022-12-18T12:21:02;79.63;;;30.35;;
35042;SDS011;21230;51.170;17.024;2022-12-18T12:23:56;62.67;;;30.65;;
35042;SDS011;21230;51.170;17.024;2022-12-18T12:40:05;69.45;;;28.00;;
35042;SDS011;21230;51.170;17.024;2022-12-18T12:42:33;56.83;;;24.42;;
35042;SDS011;21230;51.170;17.024;2022-12-18T12:51:10;60.55;;;26.10;;
35042;SDS011;21230;51.170;17.024;2022-12-18T12:53:43;57.28;;;26.98;;
35042;SDS011;21230;51.170;17.024;2022-12-18T12:56:14;71.63;;;29.88;;
35042;SDS011;21230;51.170;17.024;2022-12-18T12:58:45;82.30;;;30.35;;
35042;SDS011;21230;51.170;17.024;2022-12-18T13:15:26;74.80;;;28.85;;
35042;SDS011;21230;51.170;17.024;2022-12-18T13:18:41;74.63;;;28.27;;
35042;SDS011;21230;51.170;17.024;2022-12-18T13:20:50;64.80;;;29.38;;
35042;SDS011;21230;51.170;17.024;2022-12-18T13:26:34;72.30;;;29.27;;
35042;SDS011;21230;51.170;17.024;2022-12-18T13:31:57;45.80;;;18.38;;
35042;SDS011;21230;51.170;17.024;2022-12-18T13:34:28;70.15;;;28.75;;
35042;SDS011;21230;51.170;17.024;2022-12-18T13:40:00;70.13;;;26.70;;
35042;SDS011;21230;51.170;17.024;2022-12-18T13:45:35;68.72;;;31.83;;
35042;SDS011;21230;51.170;17.024;2022-12-18T13:48:04;71.28;;;29.52;;
35042;SDS011;21230;51.170;17.024;2022-12-18T13:50:33;67.90;;;26.33;;
35042;SDS011;21230;51.170;17.024;2022-12-18T13:52:59;78.43;;;28.85;;
35042;SDS011;21230;51.170;17.024;2022-12-18T13:55:25;67.18;;;30.27;;
35042;SDS011;21230;51.170;17.024;2022-12-18T13:57:51;65.50;;;27.33;;
35042;SDS011;21230;51.170;17.024;2022-12-18T14:00:29;78.10;;;30.65;;
35042;SDS011;21230;51.170;17.024;2022-12-18T14:02:56;66.88;;;28.45;;
35042;SDS011;21230;51.170;17.024;2022-12-18T14:08:03;73.20;;;30.55;;
35042;SDS011;21230;51.170;17.024;2022-12-18T14:10:31;70.30;;;31.45;;
35042;SDS011;21230;51.170;17.024;2022-12-18T14:12:58;61.30;;;27.48;;
35042;SDS011;21230;51.170;17.024;2022-12-18T14:15:41;66.07;;;28.23;;
35042;SDS011;21230;51.170;17.024;2022-12-18T14:20:43;42.33;;;20.55;;
35042;SDS011;21230;51.170;17.024;2022-12-18T14:28:57;56.50;;;24.45;;
35042;SDS011;21230;51.170;17.024;2022-12-18T14:31:26;82.07;;;28.15;;
35042;SDS011;21230;51.170;17.024;2022-12-18T14:33:54;72.40;;;28.45;;
35042;SDS011;21230;51.170;17.024;2022-12-18T14:36:22;60.13;;;27.15;;
35042;SDS011;21230;51.170;17.024;2022-12-18T14:38:50;67.57;;;31.08;;
35042;SDS011;21230;51.170;17.024;2022-12-18T14:41:19;68.63;;;28.83;;
35042;SDS011;21230;51.170;17.024;2022-12-18T14:43:47;71.90;;;30.00;;
35042;SDS011;21230;51.170;17.024;2022-12-18T14:46:48;72.70;;;31.23;;
35042;SDS011;21230;51.170;17.024;2022-12-18T14:51:54;70.07;;;29.08;;
35042;SDS011;21230;51.170;17.024;2022-12-18T14:54:22;71.82;;;31.67;;
35042;SDS011;21230;51.170;17.024;2022-12-18T14:59:46;77.95;;;33.75;;
35042;SDS011;21230;51.170;17.024;2022-12-18T15:02:20;68.90;;;25.00;;
35042;SDS011;21230;51.170;17.024;2022-12-18T15:04:59;81.43;;;33.60;;
35042;SDS011;21230;51.170;17.024;2022-12-18T15:07:38;87.07;;;32.33;;
35042;SDS011;21230;51.170;17.024;2022-12-18T15:10:19;84.83;;;32.90;;
35042;SDS011;21230;51.170;17.024;2022-12-18T15:12:48;90.28;;;37.15;;
35042;SDS011;21230;51.170;17.024;2022-12-18T15:20:42;96.30;;;37.10;;
35042;SDS011;21230;51.170;17.024;2022-12-18T15:23:23;102.07;;;40.70;;
35042;SDS011;21230;51.170;17.024;2022-12-18T15:25:57;104.90;;;42.80;;
35042;SDS011;21230;51.170;17.024;2022-12-18T15:28:36;106.50;;;39.55;;
35042;SDS011;21230;51.170;17.024;2022-12-18T15:33:31;65.50;;;27.33;;
35042;SDS011;21230;51.170;17.024;2022-12-18T15:36:03;74.63;;;29.60;;
35042;SDS011;21230;51.170;17.024;2022-12-18T15:38:31;103.00;;;38.17;;
35042;SDS011;21230;51.170;17.024;2022-12-18T15:40:59;70.28;;;27.00;;
35042;SDS011;21230;51.170;17.024;2022-12-18T15:43:29;62.17;;;26.70;;
35042;SDS011;21230;51.170;17.024;2022-12-18T15:46:05;92.75;;;31.55;;
35042;SDS011;21230;51.170;17.024;2022-12-18T15:48:48;103.93;;;39.03;;
35042;SDS011;21230;51.170;17.024;2022-12-18T15:51:23;98.38;;;34.70;;
35042;SDS011;21230;51.170;17.024;2022-12-18T15:54:11;112.50;;;43.05;;
35042;SDS011;21230;51.170;17.024;2022-12-18T15:56:41;96.55;;;37.63;;
35042;SDS011;21230;51.170;17.024;2022-12-18T15:59:25;105.65;;;39.53;;
35042;SDS011;21230;51.170;17.024;2022-12-18T16:01:52;97.95;;;37.72;;
35042;SDS011;21230;51.170;17.024;2022-12-18T16:04:19;59.85;;;28.27;;
35042;SDS011;21230;51.170;17.024;2022-12-18T16:06:46;98.25;;;39.72;;
35042;SDS011;21230;51.170;17.024;2022-12-18T16:09:13;94.95;;;39.03;;
35042;SDS011;21230;51.170;17.024;2022-12-18T16:11:41;90.03;;;33.70;;
35042;SDS011;21230;51.170;17.024;2022-12-18T16:16:53;91.03;;;33.92;;
35042;SDS011;21230;51.170;17.024;2022-12-18T16:19:32;76.85;;;33.63;;
35042;SDS011;21230;51.170;17.024;2022-12-18T16:21:59;47.83;;;21.33;;
35042;SDS011;21230;51.170;17.024;2022-12-18T16:24:29;92.15;;;37.72;;
35042;SDS011;21230;51.170;17.024;2022-12-18T16:26:58;89.00;;;36.42;;
35042;SDS011;21230;51.170;17.024;2022-12-18T16:29:26;67.03;;;30.90;;
35042;SDS011;21230;51.170;17.024;2022-12-18T16:31:54;59.63;;;27.73;;
35042;SDS011;21230;51.170;17.024;2022-12-18T16:34:27;80.22;;;36.65;;
35042;SDS011;21230;51.170;17.024;2022-12-18T16:36:56;88.18;;;37.83;;
35042;SDS011;21230;51.170;17.024;2022-12-18T16:39:24;109.67;;;37.80;;
35042;SDS011;21230;51.170;17.024;2022-12-18T16:41:51;111.93;;;38.58;;
35042;SDS011;21230;51.170;17.024;2022-12-18T16:44:17;93.53;;;37.03;;
35042;SDS011;21230;51.170;17.024;2022-12-18T16:46:45;92.55;;;38.70;;
35042;SDS011;21230;51.170;17.024;2022-12-18T16:49:12;94.93;;;38.60;;
35042;SDS011;21230;51.170;17.024;2022-12-18T16:51:40;52.58;;;21.10;;
35042;SDS011;21230;51.170;17.024;2022-12-18T16:54:08;93.47;;;35.78;;
35042;SDS011;21230;51.170;17.024;2022-12-18T16:56:35;62.80;;;25.40;;
35042;SDS011;21230;51.170;17.024;2022-12-18T16:59:02;87.07;;;36.13;;
35042;SDS011;21230;51.170;17.024;2022-12-18T17:01:29;72.10;;;27.83;;
35042;SDS011;21230;51.170;17.024;2022-12-18T17:04:00;92.95;;;28.33;;
35042;SDS011;21230;51.170;17.024;2022-12-18T17:06:31;67.88;;;23.63;;
35042;SDS011;21230;51.170;17.024;2022-12-18T17:09:01;61.90;;;23.70;;
35042;SDS011;21230;51.170;17.024;2022-12-18T17:11:30;86.88;;;36.63;;
35042;SDS011;21230;51.170;17.024;2022-12-18T17:13:57;92.25;;;32.72;;
35042;SDS011;21230;51.170;17.024;2022-12-18T17:16:24;88.68;;;34.72;;
35042;SDS011;21230;51.170;17.024;2022-12-18T17:18:54;78.45;;;35.08;;
35042;SDS011;21230;51.170;17.024;2022-12-18T17:21:20;83.30;;;32.95;;
35042;SDS011;21230;51.170;17.024;2022-12-18T17:23:46;94.40;;;37.25;;
35042;SDS011;21230;51.170;17.024;2022-12-18T17:26:13;68.18;;;27.35;;